This is the latest recevied weather packets stored in our database for station/object N5SRF. If no packets are shown the sender has not sent any weather packets the latest 10 day(s).
| Time | Temp. | Humidity | Pressure | Rain* | Wind** | Luminosity | Snow |
|---|---|---|---|---|---|---|---|
| 1788026186 | 35° C | 58% | 1021.8 hPa | 0 mm | - | 789 W/m² | - |
| 1788025885 | 36.11° C | 57% | 1021.8 hPa | 0 mm | - | 777 W/m² | - |
| 1788025580 | 35.56° C | 58% | 1021.9 hPa | 0 mm | - | 694 W/m² | - |
| 1788025279 | 35.56° C | 58% | 1022.1 hPa | 0 mm | - | 751 W/m² | - |
| 1788024974 | 35° C | 59% | 1022.1 hPa | 0 mm | - | 746 W/m² | - |
| 1788024669 | 33.89° C | 61% | 1022.3 hPa | 0 mm | - | 741 W/m² | - |
| 1788024364 | 33.89° C | 61% | 1022.1 hPa | 0 mm | - | 737 W/m² | - |
| 1788024060 | 33.89° C | 60% | 1022.3 hPa | 0 mm | - | 730 W/m² | - |
| 1788023759 | 33.89° C | 61% | 1022.2 hPa | 0 mm | - | 725 W/m² | - |
| 1788023456 | 33.89° C | 62% | 1022.3 hPa | 0 mm | - | 719 W/m² | - |
| 1788023156 | 32.78° C | 63% | 1022.5 hPa | 0 mm | - | 713 W/m² | - |
| 1788022850 | 32.78° C | 63% | 1022.4 hPa | 0 mm | - | 706 W/m² | - |
| 1788022547 | 32.78° C | 64% | 1022.5 hPa | 0 mm | - | 699 W/m² | - |
| 1788022243 | 33.33° C | 62% | 1022.4 hPa | 0 mm | - | 691 W/m² | - |
| 1788021941 | 33.33° C | 65% | 1022.7 hPa | 0 mm | - | 683 W/m² | - |
| 1788021637 | 33.33° C | 67% | 1022.6 hPa | 0 mm | - | 674 W/m² | - |
| 1788021334 | 32.78° C | 67% | 1022.7 hPa | 0 mm | - | 665 W/m² | - |
| 1788021029 | 32.78° C | 68% | 1022.9 hPa | 0 mm | - | 653 W/m² | - |
| 1788020725 | 32.22° C | 69% | 1022.6 hPa | 0 mm | - | 647 W/m² | - |
| 1788020420 | 32.78° C | 69% | 1022.9 hPa | 0 mm | - | 635 W/m² | - |
| 1788020116 | 32.78° C | 70% | 1022.7 hPa | 0 mm | - | 626 W/m² | - |
| 1788019810 | 32.78° C | 69% | 1022.6 hPa | 0 mm | - | 614 W/m² | - |
| 1788019510 | 32.22° C | 71% | 1022.3 hPa | 0 mm | - | 605 W/m² | - |
| 1788019209 | 31.67° C | 73% | 1022.7 hPa | 0 mm | - | 595 W/m² | - |
| 1788018902 | 32.22° C | 73% | 1022.6 hPa | 0 mm | - | 582 W/m² | - |
* Rain latest hour (hover to see other rain measurements)
** Current wind speed in m/s (hover to see current wind gust speed)